Data for 01/13/2008

Time Sea-Level Adjusted Pressure Absolute Pressure Temperature Relative Humidity Dew Point   
(mb) (inHg) (mb) (inHg) (C) (F) (%) (C) (F)
00:05 1020 30.12 849 25.07 -0.1 31.8 75 -4 24.8
00:10 1020 30.12 849 25.07 -0.5 31.1 77 -4 24.8
00:15 1020 30.12 849 25.07 -0.9 30.4 80 -3.9 25
00:20 1020 30.12 849 25.07 -1.1 30.1 83 -3.5 25.6
00:25 1020 30.12 849 25.07 -1.3 29.7 86 -3.3 26.1
00:30 1020 30.12 849 25.07 -1.4 29.5 88 -3.2 26.3
00:35 1020 30.12 849 25.07 -1.5 29.3 89 -3.1 26.5
00:40 1020 30.12 849 25.07 -1.6 29.2 90 -2.9 26.7
00:45 1020 30.12 850 25.1 -1.6 29.1 91 -2.8 26.9
00:50 1020 30.12 850 25.1 -1.6 29.1 92 -2.8 26.9
00:55 1020 30.12 850 25.1 -1.7 29 92 -2.9 26.9
01:00 1020 30.12 850 25.1 -1.8 28.7 90 -3.3 26.1
01:05 1020 30.12 849 25.07 -2 28.4 91 -3.3 26
01:10 1020 30.12 850 25.1 -1.9 28.5 91 -3.3 26.1
01:15 1020 30.12 850 25.1 -1.8 28.7 90 -3.3 26.1
01:20 1020 30.12 850 25.1 -1.8 28.7 91 -3.2 26.3
01:25 1020 30.12 850 25.1 -1.8 28.7 91 -3.2 26.3
01:30 1020 30.12 850 25.1 -1.9 28.6 91 -3.1 26.4
01:35 1020 30.12 850 25.1 -1.9 28.6 91 -3.1 26.4
01:40 1020 30.12 850 25.1 -1.9 28.5 91 -3.3 26.1
01:45 1020 30.12 850 25.1 -2 28.4 91 -3.3 26.1
01:50 1020 30.12 850 25.1 -2.2 28.1 93 -3.2 26.3
01:55 1020 30.12 850 25.1 -2.2 28 93 -3.2 26.2
02:00 1020 30.12 850 25.1 -2.4 27.7 94 -3.3 26.1
02:05 1020 30.12 850 25.1 -2.4 27.8 95 -3.1 26.4
02:10 1020 30.12 850 25.1 -2.3 27.9 95 -3 26.6
02:15 1020 30.12 850 25.1 -2.2 28.1 95 -2.9 26.7
02:20 1021 30.15 850 25.1 -2.1 28.2 94 -2.9 26.7
02:25 1021 30.15 850 25.1 -2.1 28.3 94 -2.8 26.9
02:30 1021 30.15 850 25.1 -1.9 28.6 94 -2.8 27
02:35 1021 30.15 850 25.1 -1.8 28.8 93 -2.8 27
02:40 1021 30.15 850 25.1 -1.8 28.7 93 -2.8 26.9
02:45 1021 30.15 850 25.1 -1.8 28.7 93 -2.8 26.9
02:50 1021 30.15 850 25.1 -1.9 28.6 93 -2.8 26.9
02:55 1021 30.15 850 25.1 -1.9 28.6 93 -2.8 26.9
03:00 1021 30.15 850 25.1 -2 28.4 95 -2.7 27.1
03:05 1021 30.15 850 25.1 -2 28.5 95 -2.7 27.1
03:10 1021 30.15 850 25.1 -1.9 28.5 96 -2.5 27.5
03:15 1021 30.15 850 25.1 -1.6 29 95 -2.3 27.9
03:20 1021 30.15 850 25.1 -1.3 29.6 96 -1.9 28.5
03:25 1021 30.15 850 25.1 -1 30.2 95 -1.7 28.9
03:30 1021 30.15 850 25.1 -0.9 30.4 94 -1.7 29
03:35 1021 30.15 850 25.1 -0.7 30.7 94 -1.6 29.2
03:40 1021 30.15 850 25.1 -0.6 30.8 94 -1.5 29.2
03:45 1021 30.15 850 25.1 -0.6 30.9 93 -1.7 29
03:50 1021 30.15 850 25.1 -0.9 30.5 91 -2.2 28
03:55 1021 30.15 850 25.1 -1.1 30.1 90 -2.5 27.5
04:00 1021 30.15 850 25.1 -1 30.2 90 -2.5 27.5
04:05 1021 30.15 850 25.1 -0.9 30.4 90 -2.3 27.8
04:10 1021 30.15 850 25.1 -0.9 30.5 90 -2.3 27.9
04:15 1021 30.15 850 25.1 -0.9 30.4 90 -2.3 27.9
04:20 1021 30.15 850 25.1 -0.9 30.4 90 -2.3 27.9
04:25 1021 30.15 850 25.1 -0.8 30.5 90 -2.2 28
04:30 1021 30.15 851 25.13 -0.8 30.6 90 -2.2 28.1
04:35 1021 30.15 851 25.13 -0.7 30.7 91 -2.1 28.3
04:40 1022 30.18 851 25.13 -0.7 30.8 90 -2.1 28.2
04:45 1022 30.18 851 25.13 -0.7 30.8 91 -2 28.4
04:50 1022 30.18 851 25.13 -0.6 30.8 90 -2.1 28.3
04:55 1022 30.18 851 25.13 -0.6 30.9 89 -2.2 28
05:00 1022 30.18 851 25.13 -0.6 31 88 -2.3 27.9
05:05 1022 30.18 851 25.13 -0.5 31.1 87 -2.5 27.6
05:10 1021 30.15 851 25.13 -0.5 31.1 86 -2.6 27.4
05:15 1021 30.15 851 25.13 -0.4 31.3 83 -2.9 26.9
05:20 1021 30.15 851 25.13 -0.2 31.6 83 -2.8 26.9
05:25 1021 30.15 851 25.13 0 32 80 -3 26.6
05:30 1022 30.18 851 25.13 0.1 32.2 79 -3.1 26.5
05:35 1022 30.18 851 25.13 0.2 32.3 79 -3.1 26.5
05:40 1022 30.18 851 25.13 0.3 32.5 78 -3.1 26.3
05:45 1022 30.18 851 25.13 0.4 32.6 80 -2.7 27.1
05:50 1022 30.18 851 25.13 0 32 85 -2.1 28.1
05:55 1022 30.18 851 25.13 -0.7 30.7 88 -2.5 27.5
06:00 1022 30.18 851 25.13 -0.9 30.3 89 -2.6 27.4
06:05 1022 30.18 851 25.13 -0.7 30.7 82 -3.4 25.8
06:10 1022 30.18 851 25.13 -0.4 31.3 78 -3.8 25.1
06:15 1022 30.18 851 25.13 -0.1 31.8 77 -3.7 25.4
06:20 1022 30.18 851 25.13 -0.1 31.8 75 -4 24.8
06:25 1022 30.18 851 25.13 -0.1 31.9 77 -3.7 25.4
06:30 1022 30.18 851 25.13 -0.1 31.8 77 -3.6 25.5
06:35 1022 30.18 851 25.13 -0.2 31.7 77 -3.7 25.3
06:40 1022 30.18 852 25.16 -0.2 31.6 77 -3.8 25.1
06:45 1022 30.18 852 25.16 -0.3 31.5 76 -4 24.7
06:50 1022 30.18 852 25.16 -0.3 31.4 77 -4 24.9
06:55 1022 30.18 852 25.16 -0.4 31.3 75 -4.3 24.3
07:00 1023 30.21 852 25.16 -0.5 31.1 76 -4.3 24.3
07:05 1023 30.21 852 25.16 -0.5 31 75 -4.4 24.1
07:10 1023 30.21 852 25.16 -0.5 31.1 75 -4.3 24.2
07:15 1023 30.21 852 25.16 -0.5 31 75 -4.4 24
07:20 1023 30.21 852 25.16 -0.6 31 74 -4.7 23.6
07:25 1023 30.21 852 25.16 -0.5 31 74 -4.6 23.6
07:30 1023 30.21 852 25.16 -0.5 31 73 -4.8 23.4
07:35 1023 30.21 852 25.16 -0.5 31.1 72 -5 23.1
07:40 1023 30.21 852 25.16 -0.4 31.3 72 -4.9 23.3
07:45 1023 30.21 852 25.16 -0.4 31.3 70 -5.2 22.6
07:50 1023 30.21 852 25.16 -0.4 31.2 70 -5.2 22.7
07:55 1023 30.21 852 25.16 -0.5 31.1 69 -5.4 22.3
08:00 1023 30.21 852 25.16 -0.4 31.2 68 -5.6 22
08:05 1023 30.21 852 25.16 -0.5 31.2 67 -5.8 21.5
08:10 1023 30.21 852 25.16 -0.4 31.3 66 -6 21.2
08:15 1023 30.21 852 25.16 -0.3 31.5 64 -6.2 20.9
08:20 1023 30.21 852 25.16 -0.1 31.7 64 -6.2 20.9
08:25 1023 30.21 852 25.16 -0.1 31.9 63 -6.3 20.7
08:30 1023 30.21 852 25.16 -0.1 31.8 64 -6.2 20.9
08:35 1023 30.21 852 25.16 -0.2 31.6 66 -5.9 21.4
08:40 1023 30.21 852 25.16 -0.2 31.6 64 -6.2 20.8
08:45 1023 30.21 852 25.16 -0.2 31.6 63 -6.4 20.5
08:50 1023 30.21 853 25.19 -0.2 31.7 64 -6.2 20.8
08:55 1023 30.21 853 25.19 -0.2 31.7 64 -6.1 21
09:00 1023 30.21 853 25.19 -0.1 31.8 64 -6.2 20.9
09:05 1024 30.24 853 25.19 -0.1 31.9 63 -6.2 20.8
09:10 1024 30.24 853 25.19 -0.1 31.9 64 -6.1 21.1
09:15 1024 30.24 853 25.19 -0 32 65 -5.9 21.4
09:20 1024 30.24 853 25.19 -0 32 63 -6.2 20.8
09:25 1024 30.24 853 25.19 0.2 32.3 63 -6 21.1
09:30 1024 30.24 853 25.19 0.2 32.3 64 -5.9 21.3
09:35 1024 30.24 853 25.19 0.2 32.3 64 -5.9 21.3
09:40 1024 30.24 853 25.19 0.2 32.4 63 -6.1 21.1
09:45 1024 30.24 853 25.19 0.4 32.7 61 -6.2 20.9
09:50 1024 30.24 853 25.19 0.5 32.9 61 -6.1 21
09:55 1024 30.24 853 25.19 0.6 33 63 -5.8 21.6
10:00 1024 30.24 853 25.19 0.5 32.8 63 -5.7 21.7
10:05 1024 30.24 853 25.19 0.4 32.8 63 -5.7 21.7
10:10 1024 30.24 853 25.19 0.4 32.8 62 -5.9 21.3
10:15 1024 30.24 853 25.19 0.5 33 63 -5.8 21.6
10:20 1024 30.24 853 25.19 0.6 33.1 62 -5.9 21.3
10:25 1024 30.24 853 25.19 0.7 33.3 61 -5.9 21.3
10:30 1024 30.24 853 25.19 0.9 33.6 60 -6.1 21.1
10:35 1024 30.24 853 25.19 0.9 33.7 60 -6.1 21.1
10:40 1024 30.24 854 25.22 1 33.8 60 -5.8 21.5
10:45 1024 30.24 854 25.22 1 33.9 60 -6 21.3
10:50 1024 30.24 854 25.22 1.1 34 60 -5.8 21.5
10:55 1024 30.24 854 25.22 1 33.9 60 -6 21.3
11:00 1024 30.24 854 25.22 1.1 33.9 61 -5.7 21.7
11:05 1024 30.24 854 25.22 1.2 34.1 60 -5.7 21.7
11:10 1025 30.27 854 25.22 1.3 34.4 60 -5.6 21.9
11:15 1025 30.27 854 25.22 1.5 34.8 60 -5.4 22.2
11:20 1024 30.24 854 25.22 1.9 35.3 57 -5.7 21.7
11:25 1024 30.24 854 25.22 2 35.6 59 -5.3 22.5
11:30 1024 30.24 854 25.22 2.4 36.4 58 -5 23
11:35 1024 30.24 854 25.22 2.2 36 59 -4.9 23.2
11:40 1024 30.24 854 25.22 2.4 36.2 57 -5.2 22.7
11:45 1024 30.24 854 25.22 2.7 36.8 56 -5.2 22.6
11:50 1024 30.24 854 25.22 2.9 37.2 56 -5.1 22.8
11:55 1024 30.24 854 25.22 3 37.3 56 -5 23
12:00 1024 30.24 854 25.22 3 37.3 55 -5.1 22.8
12:05 1024 30.24 854 25.22 2.9 37.2 56 -5 23
12:10 1024 30.24 854 25.22 3 37.4 57 -4.7 23.6
12:15 1024 30.24 854 25.22 3.2 37.7 55 -5.1 22.8
12:20 1024 30.24 854 25.22 3.2 37.8 53 -5.4 22.3
12:25 1024 30.24 854 25.22 3.3 38 53 -5.4 22.2
12:30 1024 30.24 854 25.22 4 39.2 51 -5.3 22.5
12:35 1024 30.24 853 25.19 5 41 48 -5.2 22.7
12:40 1024 30.24 854 25.22 5.8 42.5 45 -5.1 22.8
12:45 1024 30.24 854 25.22 5.6 42.1 47 -4.8 23.4
12:50 1024 30.24 854 25.22 5.3 41.5 49 -4.5 23.9
12:55 1024 30.24 853 25.19 5.4 41.7 46 -5.2 22.6
13:00 1024 30.24 853 25.19 5.3 41.5 48 -5 23
13:05 1024 30.24 853 25.19 4.9 40.9 48 -5.2 22.7
13:10 1024 30.24 853 25.19 5.2 41.4 46 -5.5 22
13:15 1024 30.24 853 25.19 5.8 42.4 47 -4.7 23.5
13:20 1024 30.24 854 25.22 6.4 43.5 43 -5.2 22.7
13:25 1024 30.24 854 25.22 6.3 43.4 47 -4.3 24.3
13:30 1024 30.24 854 25.22 4.6 40.2 50 -5 23
13:35 1024 30.24 854 25.22 3.7 38.6 54 -4.7 23.6
13:40 1024 30.24 854 25.22 4 39.1 49 -5.9 21.3
13:45 1024 30.24 854 25.22 4.3 39.7 50 -5.3 22.5
13:50 1024 30.24 854 25.22 4.7 40.4 49 -5.3 22.5
13:55 1024 30.24 854 25.22 4.3 39.7 49 -5.5 22.1
14:00 1024 30.24 854 25.22 4.3 39.7 48 -5.7 21.7
14:05 1024 30.24 854 25.22 4.8 40.6 47 -5.6 21.9
14:10 1024 30.24 854 25.22 4.1 39.4 48 -6 21.3
14:15 1024 30.24 854 25.22 3.9 39 49 -6 21.3
14:20 1024 30.24 854 25.22 4.2 39.6 47 -6.1 21.1
14:25 1024 30.24 854 25.22 4.4 40 46 -6.1 21
14:30 1024 30.24 854 25.22 4.4 40 46 -6.2 20.8
14:35 1024 30.24 854 25.22 4.5 40.1 45 -6.4 20.5
14:40 1024 30.24 854 25.22 4.3 39.7 46 -6.4 20.6
14:45 1024 30.24 854 25.22 4.1 39.4 46 -6.5 20.2
14:50 1024 30.24 854 25.22 4.8 40.6 43 -6.8 19.7
14:55 1025 30.27 854 25.22 5.6 42 40 -7.1 19.2
15:00 1025 30.27 854 25.22 6.1 43 38 -7.1 19.2
15:05 1025 30.27 854 25.22 6.4 43.5 37 -7.2 19.1
15:10 1025 30.27 854 25.22 6.2 43.1 37 -7.4 18.7
15:15 1025 30.27 854 25.22 6.3 43.4 39 -6.6 20.2
15:20 1025 30.27 854 25.22 6.5 43.7 38 -6.9 19.7
15:25 1025 30.27 854 25.22 6.7 44 37 -7.1 19.1
15:30 1025 30.27 854 25.22 6.7 44 36 -7.5 18.6
15:35 1025 30.27 854 25.22 6.4 43.5 38 -6.9 19.7
15:40 1025 30.27 854 25.22 6.3 43.3 38 -7.1 19.2
15:45 1025 30.27 854 25.22 5.9 42.6 45 -5.2 22.6
15:50 1025 30.27 854 25.22 4 39.3 47 -6.3 20.6
15:55 1025 30.27 854 25.22 3.2 37.8 47 -7.1 19.3
16:00 1025 30.27 854 25.22 3.6 38.6 44 -7.4 18.6
16:05 1025 30.27 854 25.22 4.5 40.1 43 -7 19.4
16:10 1025 30.27 854 25.22 4.4 39.9 45 -6.4 20.4
16:15 1025 30.27 854 25.22 3.2 37.8 49 -6.6 20.1
16:20 1025 30.27 854 25.22 3.1 37.5 47 -7.3 18.9
16:25 1025 30.27 854 25.22 3.5 38.3 45 -7.3 18.8
16:30 1025 30.27 854 25.22 4.4 40 43 -7.2 19.1
16:35 1025 30.27 854 25.22 4.6 40.3 46 -6 21.1
16:40 1025 30.27 854 25.22 3.1 37.5 50 -6.5 20.3
16:45 1025 30.27 855 25.25 2.8 37 49 -7 19.4
16:50 1025 30.27 854 25.22 2.9 37.3 49 -6.7 20
16:55 1025 30.27 855 25.25 2.6 36.6 51 -6.6 20.1
17:00 1025 30.27 855 25.25 1.6 34.9 55 -6.5 20.4
17:05 1026 30.3 855 25.25 0.7 33.2 57 -6.8 19.7
17:10 1026 30.3 855 25.25 0.2 32.4 59 -6.9 19.5
17:15 1026 30.3 855 25.25 0.1 32.3 59 -6.9 19.6
17:20 1026 30.3 855 25.25 -0.1 31.8 59 -7.2 19.1
17:25 1026 30.3 855 25.25 -0.3 31.4 61 -7.1 19.3
17:30 1026 30.3 855 25.25 -0.7 30.8 61 -7.2 19
17:35 1026 30.3 855 25.25 -0.6 30.8 62 -7.1 19.2
17:40 1026 30.3 855 25.25 -0.5 31.1 61 -7.1 19.1
17:45 1026 30.3 855 25.25 -0.5 31 62 -6.9 19.6
17:50 1026 30.3 855 25.25 -0.8 30.5 63 -7 19.4
17:55 1026 30.3 855 25.25 -1.2 29.9 65 -7 19.4
18:00 1026 30.3 855 25.25 -1.3 29.7 65 -7.1 19.1
18:05 1026 30.3 855 25.25 -1.2 29.8 65 -7 19.3
18:10 1026 30.3 855 25.25 -1.3 29.7 65 -7.1 19.2
18:15 1026 30.3 855 25.25 -1.3 29.7 64 -7.3 18.9
18:20 1026 30.3 855 25.25 -1.3 29.6 64 -7.2 19
18:25 1026 30.3 855 25.25 -1.3 29.7 64 -7.2 19
18:30 1026 30.3 855 25.25 -1.4 29.4 64 -7.3 18.8
18:35 1026 30.3 855 25.25 -1.4 29.5 65 -7.2 19
18:40 1026 30.3 855 25.25 -1.5 29.2 65 -7.3 18.9
18:45 1026 30.3 855 25.25 -1.5 29.3 64 -7.4 18.7
18:50 1026 30.3 855 25.25 -1.2 29.8 61 -7.7 18.1
18:55 1026 30.3 855 25.25 -1.1 29.9 61 -7.7 18.1
19:00 1026 30.3 855 25.25 -1.4 29.4 61 -7.9 17.7
19:05 1026 30.3 856 25.28 -1.4 29.6 61 -7.9 17.8
19:10 1027 30.33 856 25.28 -1.1 30 61 -7.7 18.1
19:15 1027 30.33 856 25.28 -1 30.2 61 -7.6 18.4
19:20 1027 30.33 856 25.28 -1.2 29.8 62 -7.7 18.1
19:25 1027 30.33 856 25.28 -1.6 29.1 62 -8 17.6
19:30 1027 30.33 856 25.28 -1.5 29.3 62 -7.9 17.9
19:35 1027 30.33 856 25.28 -1.7 29 62 -8 17.6
19:40 1027 30.33 856 25.28 -1.2 29.9 61 -7.9 17.9
19:45 1027 30.33 856 25.28 -1 30.3 60 -7.8 18
19:50 1027 30.33 856 25.28 -0.9 30.4 60 -7.7 18.1
19:55 1027 30.33 856 25.28 -1.1 30.1 62 -7.5 18.5
20:00 1027 30.33 856 25.28 -1.3 29.7 62 -7.7 18.1
20:05 1027 30.33 856 25.28 -1.4 29.4 62 -7.9 17.8
20:10 1027 30.33 856 25.28 -2 28.3 64 -7.9 17.8
20:15 1027 30.33 856 25.28 -2.6 27.3 66 -8.1 17.4
20:20 1027 30.33 856 25.28 -2.6 27.3 69 -7.6 18.4
20:25 1027 30.33 856 25.28 -2.4 27.6 65 -8.1 17.5
20:30 1027 30.33 856 25.28 -2.6 27.4 66 -8 17.5
20:35 1027 30.33 856 25.28 -2.5 27.4 65 -8.2 17.3
20:40 1027 30.33 856 25.28 -2.7 27.2 67 -8 17.5
20:45 1027 30.33 856 25.28 -2.8 27 66 -8.2 17.2
20:50 1027 30.33 856 25.28 -2.8 26.9 68 -7.9 17.8
20:55 1027 30.33 856 25.28 -2.7 27.2 68 -7.8 18
21:00 1027 30.33 856 25.28 -2.9 26.8 68 -7.9 17.8
21:05 1027 30.33 856 25.28 -3 26.6 67 -8.2 17.2
21:10 1027 30.33 856 25.28 -3.1 26.4 68 -8.2 17.2
21:15 1027 30.33 856 25.28 -3.1 26.4 68 -8.2 17.2
21:20 1027 30.33 856 25.28 -3 26.5 67 -8.3 17.1
21:25 1027 30.33 856 25.28 -2.7 27.1 65 -8.4 17
21:30 1027 30.33 856 25.28 -2.6 27.3 66 -8.1 17.3
21:35 1027 30.33 856 25.28 -2.7 27.1 66 -8.1 17.3
21:40 1027 30.33 856 25.28 -2.9 26.8 67 -8.2 17.3
21:45 1027 30.33 856 25.28 -3.1 26.4 68 -8.2 17.3
21:50 1027 30.33 856 25.28 -3.3 26.1 68 -8.4 16.9
21:55 1027 30.33 856 25.28 -3.2 26.2 68 -8.3 17
22:00 1027 30.33 856 25.28 -3.3 26.1 68 -8.3 17.1
22:05 1027 30.33 856 25.28 -3.3 26 69 -8.3 17.1
22:10 1027 30.33 856 25.28 -3.5 25.7 70 -8.2 17.2
22:15 1027 30.33 856 25.28 -3.6 25.5 70 -8.4 16.9
22:20 1027 30.33 856 25.28 -3.5 25.7 70 -8.3 17.1
22:25 1027 30.33 856 25.28 -3.5 25.8 69 -8.3 17.1
22:30 1027 30.33 856 25.28 -3.2 26.2 68 -8.3 17.1
22:35 1027 30.33 856 25.28 -3 26.7 67 -8.2 17.3
22:40 1027 30.33 856 25.28 -2.8 27 67 -8.1 17.5
22:45 1027 30.33 856 25.28 -2.6 27.3 66 -8.1 17.5
22:50 1027 30.33 856 25.28 -2.5 27.5 66 -8 17.6
22:55 1027 30.33 856 25.28 -2.5 27.6 66 -8 17.6
23:00 1027 30.33 856 25.28 -2.5 27.5 66 -8 17.6
23:05 1027 30.33 856 25.28 -2.7 27.1 67 -8.1 17.5
23:10 1027 30.33 856 25.28 -2.8 27 67 -8.2 17.3
23:15 1027 30.33 856 25.28 -2.7 27.1 67 -8.1 17.4
23:20 1027 30.33 856 25.28 -2.7 27.1 66 -8.2 17.3
23:25 1027 30.33 856 25.28 -2.6 27.3 65 -8.3 17.1
23:30 1027 30.33 856 25.28 -2.7 27.2 67 -8 17.5
23:35 1027 30.33 856 25.28 -3 26.6 68 -8.1 17.4
23:40 1027 30.33 856 25.28 -3.2 26.2 69 -8.1 17.4
23:45 1026 30.3 856 25.28 -3.6 25.5 71 -8.1 17.4
23:50 1026 30.3 856 25.28 -4 24.8 73 -8.2 17.2
23:55 1027 30.33 856 25.28 -4 24.7 72 -8.4 16.9
24:00 1027 30.33 856 25.28 -3.8 25.1 71 -8.3 17